Terminal Aerodrome Forecast
Issued by NWS Sioux Falls, SD

Home | Current Version | Previous Version | Text Only | Print | Product List | Glossary On
Versions: 1 2 3 4 5 6 7 8 9 10 11 12 13 14 15 16
000
FTUS43 KFSD 230930 AAA
TAFSUX
TAF AMD
KSUX 230930Z 2309/2406 14008KT P6SM BKN200
     FM231000 14008KT P6SM SCT040 BKN120
      TEMPO 2310/2312 25016KT 4SM TSRA OVC035CB
     FM231500 15007KT P6SM BKN250
     FM231800 17011KT P6SM SCT110 BKN140
     FM240000 20009KT P6SM SCT110
     FM240400 25006KT P6SM SCT120=

USA.gov is the U.S. government's official web portal to all federal, state and local government web resources and services.